Time;durP1;ratioP1;P1;durP2;ratioP2;P2;SDS_P1;SDS_P2;PMS_P1;PMS_P2;Temp;Humidity;BMP_temperature;BMP_pressure;BME280_temperature;BME280_humidity;BME280_pressure;Samples;Min_cycle;Max_cycle;Signal;HPM_P1;HPM_P2
2023/05/08 12:12:39;;;;;;;;;7.00;6.00;;;;;18.28;60.37;101844.59;5109078;27;45723;-74
2023/05/08 12:15:12;;;;;;;;;8.00;7.00;;;;;18.48;59.54;101836.97;5109864;27;45988;-73
2023/05/08 12:17:38;;;;;;;;;5.33;5.33;;;;;18.70;59.55;101839.03;5094706;27;45504;-74
2023/05/08 12:20:10;;;;;;;;;5.67;5.67;;;;;18.91;59.01;101833.06;5106147;27;45775;-73
2023/05/08 12:22:36;;;;;;;;;7.00;6.00;;;;;19.12;59.04;101835.19;5106240;27;47057;-73
2023/05/08 12:25:03;;;;;;;;;5.67;5.67;;;;;19.33;58.15;101830.06;5109486;27;49651;-74
2023/05/08 12:27:29;;;;;;;;;6.00;5.33;;;;;19.51;58.48;101826.97;5093631;27;45787;-74
2023/05/08 12:29:56;;;;;;;;;8.00;6.33;;;;;19.70;57.76;101826.41;5102084;27;45401;-77
2023/05/08 12:32:22;;;;;;;;;7.67;6.00;;;;;19.87;58.03;101835.91;5095942;27;46391;-77
2023/05/08 12:34:47;;;;;;;;;9.33;7.67;;;;;20.02;57.06;101827.66;5091618;27;45523;-75
2023/05/08 12:37:23;;;;;;;;;6.00;5.67;;;;;20.19;56.69;101822.81;5100058;27;45802;-75
2023/05/08 12:39:48;;;;;;;;;5.00;5.00;;;;;20.33;56.71;101824.41;5100965;27;45542;-75
2023/05/08 12:42:13;;;;;;;;;8.00;8.00;;;;;20.45;55.90;101822.56;5100605;27;45492;-73
2023/05/08 12:44:38;;;;;;;;;6.67;6.00;;;;;20.52;56.28;101821.97;5104591;27;52973;-72
2023/05/08 12:47:05;;;;;;;;;7.00;7.00;;;;;20.65;55.69;101821.84;5104442;27;45463;-73
2023/05/08 12:49:31;;;;;;;;;7.00;7.00;;;;;20.75;55.11;101821.97;5107608;27;45768;-74
2023/05/08 12:52:00;;;;;;;;;7.00;6.00;;;;;20.84;54.99;101820.34;5102736;27;46016;-79
2023/05/08 12:54:37;;;;;;;;;9.00;8.00;;;;;20.92;54.70;101820.63;5100324;27;45787;-76
2023/05/08 12:57:18;;;;;;;;;7.67;5.67;;;;;20.98;54.74;101816.59;5103705;27;45524;-76
2023/05/08 12:59:45;;;;;;;;;6.33;6.00;;;;;21.03;54.67;101808.97;5105321;27;45599;-77
2023/05/08 13:02:20;;;;;;;;;9.00;6.00;;;;;21.09;54.33;101814.84;5105586;27;45656;-77
2023/05/08 13:04:46;;;;;;;;;8.00;8.00;;;;;21.15;54.32;101817.03;5105592;27;45428;-77
2023/05/08 13:07:11;;;;;;;;;5.33;5.33;;;;;21.18;53.48;101808.69;5095155;27;45874;-77
2023/05/08 13:09:37;;;;;;;;;7.00;7.00;;;;;21.24;53.70;101807.28;5112635;27;45535;-77
2023/05/08 13:12:02;;;;;;;;;7.33;6.33;;;;;21.29;53.57;101814.03;5106960;27;46012;-77
2023/05/08 13:14:28;;;;;;;;;6.33;6.33;;;;;21.35;53.45;101826.19;5107912;27;45524;-78
2023/05/08 13:16:53;;;;;;;;;6.00;5.00;;;;;21.38;53.63;101825.91;5102637;27;52850;-77
2023/05/08 13:19:18;;;;;;;;;6.67;6.67;;;;;21.39;53.32;101824.06;5110665;27;49712;-77
2023/05/08 13:21:47;;;;;;;;;5.00;5.00;;;;;21.42;53.20;101835.47;5105499;27;46313;-77
2023/05/08 13:24:13;;;;;;;;;6.00;6.00;;;;;21.45;53.11;101837.94;5102236;27;45480;-77
2023/05/08 13:26:39;;;;;;;;;4.33;4.33;;;;;21.47;53.02;101845.91;5080574;27;45458;-77
2023/05/08 13:29:04;;;;;;;;;7.33;7.33;;;;;21.50;52.99;101850.19;5084291;27;45508;-78
2023/05/08 13:31:29;;;;;;;;;5.67;5.67;;;;;21.49;52.61;101837.69;5088874;27;56413;-78
2023/05/08 13:33:55;;;;;;;;;5.67;5.67;;;;;21.52;52.69;101840.97;5092511;27;53512;-78
2023/05/08 13:36:20;;;;;;;;;7.00;7.00;;;;;21.54;52.70;101838.16;5087535;27;47232;-78
2023/05/08 13:38:45;;;;;;;;;5.67;5.00;;;;;21.56;52.98;101838.88;5090645;27;45623;-78
2023/05/08 13:41:11;;;;;;;;;7.00;7.00;;;;;21.58;52.87;101845.03;5094506;27;46189;-78
2023/05/08 13:43:36;;;;;;;;;6.00;5.00;;;;;21.57;52.65;101843.28;5082825;27;45497;-79
2023/05/08 13:46:02;;;;;;;;;4.67;4.67;;;;;21.58;52.92;101843.16;5093745;27;45584;-79
2023/05/08 13:48:28;;;;;;;;;5.00;5.00;;;;;21.58;52.40;101845.03;5087519;27;45487;-78
2023/05/08 13:50:53;;;;;;;;;7.67;7.00;;;;;21.59;52.62;101850.25;5091732;27;46077;-78
2023/05/08 13:53:18;;;;;;;;;8.67;7.67;;;;;21.61;52.30;101850.13;5089159;27;50684;-78
2023/05/08 13:55:44;;;;;;;;;5.00;5.00;;;;;21.60;52.00;101832.22;5079573;27;45541;-76
2023/05/08 13:58:09;;;;;;;;;6.33;6.33;;;;;21.61;52.26;101833.09;5078387;27;45435;-78
2023/05/08 14:00:35;;;;;;;;;5.33;5.33;;;;;21.63;52.20;101831.09;5092547;27;46229;-76
2023/05/08 14:03:00;;;;;;;;;6.00;6.00;;;;;21.64;52.20;101827.41;5087103;27;47149;-77
2023/05/08 14:05:25;;;;;;;;;5.00;5.00;;;;;21.64;52.08;101817.47;5082818;27;45797;-76
2023/05/08 14:07:50;;;;;;;;;5.00;5.00;;;;;21.66;51.99;101815.50;5096562;27;45556;-76
2023/05/08 14:10:16;;;;;;;;;5.33;5.33;;;;;21.68;52.17;101812.66;5096745;27;47689;-76
2023/05/08 14:12:41;;;;;;;;;5.33;4.00;;;;;21.68;52.71;101818.06;5081091;27;47199;-76
2023/05/08 14:15:07;;;;;;;;;4.00;3.67;;;;;21.64;52.64;101817.47;5083893;27;47189;-77
2023/05/08 14:17:33;;;;;;;;;7.33;5.33;;;;;21.64;52.14;101819.31;5100408;27;45498;-76
2023/05/08 14:19:58;;;;;;;;;4.00;4.00;;;;;21.64;52.76;101822.00;5093091;27;46321;-76
2023/05/08 14:22:24;;;;;;;;;6.33;5.00;;;;;21.62;52.28;101814.03;5080130;27;45508;-76
2023/05/08 14:24:49;;;;;;;;;5.00;5.00;;;;;21.64;52.19;101814.78;5088265;27;45644;-76
2023/05/08 14:27:14;;;;;;;;;4.67;4.33;;;;;21.65;52.58;101802.97;5091118;27;45668;-76
2023/05/08 14:29:40;;;;;;;;;4.00;4.00;;;;;21.65;52.10;101808.38;5080275;27;45580;-75
2023/05/08 14:32:06;;;;;;;;;5.00;3.67;;;;;21.68;51.96;101810.84;5088704;27;45624;-76
2023/05/08 14:34:31;;;;;;;;;5.33;5.33;;;;;21.69;52.31;101807.13;5080105;27;45724;-76
2023/05/08 14:36:57;;;;;;;;;6.33;6.00;;;;;21.70;51.91;101795.31;5082008;27;45565;-76
2023/05/08 14:39:22;;;;;;;;;5.33;4.67;;;;;21.72;52.21;101795.25;5085274;27;46166;-76
2023/05/08 14:41:47;;;;;;;;;6.00;6.00;;;;;21.75;52.43;101789.59;5093499;27;45492;-73
2023/05/08 14:44:13;;;;;;;;;4.33;4.33;;;;;21.78;51.82;101793.88;5086175;27;45803;-74
2023/05/08 14:46:38;;;;;;;;;4.00;4.00;;;;;21.78;52.12;101786.59;5087716;27;50455;-76
2023/05/08 14:49:04;;;;;;;;;5.67;4.00;;;;;21.80;51.99;101779.22;5092043;27;59669;-76
2023/05/08 14:51:30;;;;;;;;;6.67;6.00;;;;;21.82;51.83;101779.94;5082166;27;45504;-75
2023/05/08 14:53:55;;;;;;;;;3.00;2.00;;;;;21.85;51.69;101779.69;5091331;27;45783;-76
2023/05/08 14:56:23;;;;;;;;;5.67;5.67;;;;;21.85;51.77;101781.53;5090661;27;45876;-76
2023/05/08 14:58:53;;;;;;;;;4.00;3.33;;;;;21.87;51.75;101787.69;5082828;27;47160;-74
2023/05/08 15:01:18;;;;;;;;;3.67;3.67;;;;;21.88;51.75;101775.00;5083838;27;45600;-74
2023/05/08 15:03:46;;;;;;;;;4.00;3.33;;;;;21.89;51.80;101776.69;5091851;27;45386;-74
2023/05/08 15:06:11;;;;;;;;;4.00;4.00;;;;;21.88;51.72;101775.88;5082848;27;45522;-75
2023/05/08 15:08:36;;;;;;;;;3.00;3.00;;;;;21.92;52.04;101788.13;5078847;27;46945;-75
2023/05/08 15:11:02;;;;;;;;;4.00;4.00;;;;;21.94;51.52;101783.44;5086221;27;45516;-76
2023/05/08 15:13:27;;;;;;;;;4.00;4.00;;;;;21.95;51.68;101777.03;5088335;27;45612;-76
2023/05/08 15:15:52;;;;;;;;;5.33;5.33;;;;;21.98;51.77;101784.03;5087451;27;48700;-75
2023/05/08 15:18:18;;;;;;;;;7.33;4.33;;;;;21.98;51.64;101779.47;5081936;27;46908;-75
2023/05/08 15:20:43;;;;;;;;;5.00;5.00;;;;;21.99;51.63;101774.94;5083190;27;45530;-76
2023/05/08 15:23:08;;;;;;;;;6.00;4.67;;;;;22.02;51.41;101773.81;5087553;27;45954;-75
2023/05/08 15:25:33;;;;;;;;;5.00;5.00;;;;;22.02;51.18;101769.25;5084405;27;52398;-76
2023/05/08 15:27:59;;;;;;;;;5.00;3.67;;;;;22.04;51.71;101782.63;5087257;27;47894;-75
2023/05/08 15:30:24;;;;;;;;;5.00;5.00;;;;;22.04;51.35;101786.22;5087128;27;45433;-75
2023/05/08 15:32:49;;;;;;;;;5.00;4.00;;;;;22.04;51.32;101788.06;5082066;27;58689;-75
2023/05/08 15:35:15;;;;;;;;;5.00;5.00;;;;;22.05;51.20;101782.50;5076898;27;45421;-75
2023/05/08 15:37:41;;;;;;;;;5.00;5.00;;;;;22.06;51.42;101777.94;5077544;27;45695;-75
2023/05/08 15:40:07;;;;;;;;;3.67;3.67;;;;;22.06;51.43;101777.94;5078577;27;45839;-75
2023/05/08 15:42:33;;;;;;;;;4.33;4.33;;;;;22.04;51.23;101780.81;5077691;27;45560;-75
2023/05/08 15:44:58;;;;;;;;;4.00;4.00;;;;;22.07;51.07;101779.69;5087455;27;45774;-75
2023/05/08 15:47:27;;;;;;;;;5.00;4.67;;;;;22.06;51.20;101778.81;5080080;27;45946;-75
2023/05/08 15:49:53;;;;;;;;;4.00;4.00;;;;;22.04;51.12;101775.41;5078188;27;45568;-75
2023/05/08 15:52:18;;;;;;;;;4.67;4.67;;;;;22.05;51.23;101784.34;5084170;27;45423;-75
2023/05/08 15:54:45;;;;;;;;;5.33;5.00;;;;;22.04;50.96;101772.69;5088774;27;45620;-75
2023/05/08 15:57:10;;;;;;;;;8.00;5.33;;;;;22.04;51.13;101763.72;5079836;27;46365;-75
2023/05/08 15:59:36;;;;;;;;;5.00;4.00;;;;;22.04;51.26;101759.19;5086201;27;50905;-76
2023/05/08 16:02:02;;;;;;;;;7.00;6.33;;;;;22.03;51.23;101762.84;5087923;27;45606;-76
2023/05/08 16:04:28;;;;;;;;;6.00;6.00;;;;;22.04;51.01;101767.28;5075479;27;45856;-76
2023/05/08 16:06:54;;;;;;;;;6.00;4.67;;;;;22.03;50.86;101764.72;5079031;27;45567;-75
2023/05/08 16:09:20;;;;;;;;;4.00;4.00;;;;;22.04;51.11;101761.88;5092736;27;45732;-76
2023/05/08 16:11:46;;;;;;;;;4.00;4.00;;;;;22.03;50.93;101765.56;5078156;27;45694;-77
2023/05/08 16:14:12;;;;;;;;;5.00;5.00;;;;;22.02;51.13;101763.84;5079924;27;45395;-76
2023/05/08 16:16:38;;;;;;;;;4.67;4.67;;;;;22.04;51.12;101772.69;5086825;27;45951;-76
2023/05/08 16:19:04;;;;;;;;;5.00;5.00;;;;;22.04;51.08;101770.00;5079682;27;45637;-76
2023/05/08 16:21:30;;;;;;;;;4.33;3.00;;;;;22.03;50.63;101767.41;5077773;27;45544;-75
2023/05/08 16:23:56;;;;;;;;;6.00;4.00;;;;;22.04;50.85;101772.69;5081758;27;45565;-75
2023/05/08 16:26:22;;;;;;;;;6.33;6.00;;;;;22.04;50.69;101771.81;5089232;27;46342;-76
2023/05/08 16:28:47;;;;;;;;;3.67;3.00;;;;;22.03;51.06;101767.41;5073542;27;45505;-76
2023/05/08 16:31:13;;;;;;;;;5.33;5.33;;;;;22.02;50.87;101766.56;5082276;27;45504;-76
2023/05/08 16:33:38;;;;;;;;;7.00;6.00;;;;;22.03;50.88;101770.97;5075604;27;45877;-76
2023/05/08 16:36:04;;;;;;;;;4.00;4.00;;;;;22.01;50.97;101759.44;5075759;27;45914;-76
2023/05/08 16:38:29;;;;;;;;;5.67;4.00;;;;;21.97;50.59;101750.75;5080103;27;45516;-74
2023/05/08 16:41:01;;;;;;;;;5.00;5.00;;;;;21.98;51.03;101746.19;5087428;27;45828;-76
2023/05/08 16:43:26;;;;;;;;;5.67;5.00;;;;;22.02;50.95;101746.78;5082898;27;46012;-75
2023/05/08 16:45:51;;;;;;;;;4.00;4.00;;;;;22.00;50.63;101736.09;5080044;27;60959;-76
